Airfield :
LOGIN :

Register | Disclaimer

   EN    FR    IT 

 










Legend :    VFR   Marginal VFR   IFR   Intensive IFR   Very Intensive IFR
Visi :
Ceiling :
>= 8 km
>= 3000ft
5 to 8 km
1000 to 3000 ft
1500m to 5 km
500 to 1000 ft
800 to 1500m
200 to 500 ft
< 800m
< 200 ft
Symbols :   Thunderstorms  Fog  Heavy snow  Heavy precipitations  Wind > 20 kt
SIGMETs :     Misc.  Thunderstorms  Icing  Turbulence  Mountain Waves  Volcanic Ashes







- Airport Elevation : 84 ft
- Download approach charts


LFBC - Cazaux

CURRENT METAR :
  • 201800Z AUTO 32009KT CAVOK 25/16 Q1019 NOSIG

EXPIRED METARs :
  • 201730Z AUTO 32009KT CAVOK 26/15 Q1019 NOSIG
  • 201700Z AUTO 31010KT CAVOK 25/16 Q1020 NOSIG
  • 201630Z AUTO 31010KT CAVOK 25/15 Q1020 NOSIG
  • 201600Z AUTO 30008KT CAVOK 26/15 Q1020 NOSIG
  • 201530Z AUTO 31009KT 270V350 CAVOK 26/14 Q1020 NOSIG

TAF TAF LFBC
Valid from the 20 at 15:00 until the 21 at 15:00 UTC


201400Z 2015/2115 30010KT CAVOK
BECMG 2023/2024 02003KT
BECMG 2112/2113 32012KT
No reported NOTAMs for that airfield.



MET'MAP, your aeronautical weather chart ! - Copyright ORBIFLY December 2007 - Disclaimer

ORBIFLY MET'MAP TEAM :

Programming & Development : Alexandra Zaïnal
Concept & Development : Baudouin d'Aumeries
Co-Development & Prog : Marc-Olivier Méhu
Technical & hardware support : Manuel Goepfert

Contact : metmap@orbifly.com




SOURCES & CREDITS :

   NOAA